Time;durP1;ratioP1;P1;durP2;ratioP2;P2;SDS_P1;SDS_P2;PMS_P1;PMS_P2;Temp;Humidity;BMP_temperature;BMP_pressure;BME280_temperature;BME280_humidity;BME280_pressure;Samples;Min_cycle;Max_cycle;Signal;HPM_P1;HPM_P2
2021/09/09 00:00:00;;;;;;;35.05;22.27;;;;;;;19.13;79.20;100157.91;4947526;28;20047;-78
2021/09/09 00:02:26;;;;;;;31.40;22.23;;;;;;;19.11;79.47;100165.97;4951551;28;20562;-78
2021/09/09 00:04:53;;;;;;;30.15;21.45;;;;;;;19.14;79.60;100159.53;4940883;29;20122;-78
2021/09/09 00:07:20;;;;;;;36.33;22.60;;;;;;;19.13;79.41;100157.91;4953771;28;20046;-79
2021/09/09 00:09:47;;;;;;;32.20;23.83;;;;;;;19.13;79.48;100157.91;4956408;28;20081;-80
2021/09/09 00:12:14;;;;;;;37.33;23.27;;;;;;;19.12;79.59;100156.31;4953958;28;20055;-78
2021/09/09 00:14:43;;;;;;;34.45;22.10;;;;;;;19.12;79.52;100161.94;4955353;28;20050;-79
2021/09/09 00:17:10;;;;;;;36.42;23.42;;;;;;;19.12;79.84;100154.31;4953350;28;20494;-78
2021/09/09 00:19:37;;;;;;;31.58;21.73;;;;;;;19.09;79.54;100160.75;4931061;28;20077;-78
2021/09/09 00:22:03;;;;;;;38.50;24.08;;;;;;;19.07;79.82;100154.78;4954603;28;20057;-78
2021/09/09 00:24:30;;;;;;;34.20;20.35;;;;;;;19.10;79.54;100165.16;4932677;28;20080;-78
2021/09/09 00:26:57;;;;;;;35.20;23.65;;;;;;;19.09;79.85;100163.56;4954941;28;20050;-78
2021/09/09 00:29:23;;;;;;;37.53;23.63;;;;;;;19.10;79.81;100156.75;4936774;28;20043;-79
2021/09/09 00:31:51;;;;;;;37.55;22.92;;;;;;;19.08;79.52;100149.97;4953127;28;20395;-78
2021/09/09 00:34:17;;;;;;;44.90;26.10;;;;;;;19.11;79.84;100154.75;4954218;28;20078;-79
2021/09/09 00:36:44;;;;;;;46.15;25.83;;;;;;;19.12;79.74;100154.31;4952312;28;20043;-79
2021/09/09 00:39:12;;;;;;;43.63;26.63;;;;;;;19.10;79.89;100153.94;4951736;28;20035;-78
2021/09/09 00:41:39;;;;;;;46.67;26.42;;;;;;;19.07;80.25;100148.34;4953430;28;20088;-79
2021/09/09 00:44:19;;;;;;;39.50;25.05;;;;;;;19.02;80.74;100152.44;4953376;28;20499;-79
2021/09/09 00:46:57;;;;;;;49.45;27.20;;;;;;;19.07;80.54;100154.78;4938034;29;20050;-79
2021/09/09 00:49:24;;;;;;;39.63;26.65;;;;;;;19.09;80.32;100165.59;4952055;28;20043;-79
2021/09/09 00:51:50;;;;;;;49.15;29.08;;;;;;;19.07;80.22;100159.59;4951930;28;20045;-78
2021/09/09 00:54:18;;;;;;;52.75;30.17;;;;;;;18.97;80.60;100160.50;4937163;29;20470;-80
2021/09/09 00:56:45;;;;;;;45.55;29.42;;;;;;;18.91;80.82;100162.16;4945318;28;20062;-78
2021/09/09 00:59:12;;;;;;;59.25;30.95;;;;;;;18.87;81.11;100161.41;4952045;28;20040;-78
2021/09/09 01:01:40;;;;;;;57.10;32.45;;;;;;;18.84;81.58;100149.00;4956127;28;20052;-79
2021/09/09 01:04:07;;;;;;;44.72;27.45;;;;;;;18.83;81.78;100144.59;4965712;28;20102;-79
2021/09/09 01:06:34;;;;;;;46.63;29.23;;;;;;;18.80;81.63;100146.22;4937412;28;20736;-80
2021/09/09 01:09:02;;;;;;;46.20;27.13;;;;;;;18.80;81.89;100149.03;4964517;28;20158;-79
2021/09/09 01:11:29;;;;;;;59.28;31.10;;;;;;;18.74;81.50;100142.28;4955644;28;20050;-79
2021/09/09 01:14:05;;;;;;;52.45;29.33;;;;;;;18.66;82.19;100137.16;4936721;29;20161;-79
2021/09/09 01:16:32;;;;;;;55.97;29.52;;;;;;;18.63;81.80;100135.19;4948480;28;20595;-78
2021/09/09 01:18:59;;;;;;;61.65;30.83;;;;;;;18.58;81.85;100142.03;4953697;28;20039;-79
2021/09/09 01:21:26;;;;;;;56.50;29.60;;;;;;;18.52;82.09;100140.88;4952656;28;20043;-78
2021/09/09 01:23:58;;;;;;;49.85;28.58;;;;;;;18.45;82.79;100135.31;4940810;28;20045;-79
2021/09/09 01:26:27;;;;;;;57.17;29.00;;;;;;;18.43;82.75;100129.31;4919563;28;20054;-79
2021/09/09 01:28:58;;;;;;;43.97;26.38;;;;;;;18.39;83.00;100128.56;4933693;28;20051;-79
2021/09/09 01:31:25;;;;;;;44.22;27.35;;;;;;;18.43;83.19;100125.69;4918492;29;20503;-79
2021/09/09 01:33:56;;;;;;;43.53;25.98;;;;;;;18.44;83.58;100122.50;4935415;29;20047;-79
2021/09/09 01:36:23;;;;;;;53.58;26.38;;;;;;;18.47;83.60;100120.88;4950602;28;20046;-79
2021/09/09 01:38:50;;;;;;;47.20;28.00;;;;;;;18.49;83.74;100124.88;4951857;28;20048;-79
2021/09/09 01:41:17;;;;;;;39.90;24.65;;;;;;;18.50;83.78;100115.28;4952548;28;20380;-80
2021/09/09 01:43:43;;;;;;;42.90;24.73;;;;;;;18.57;83.79;100122.81;4954609;28;20055;-79
2021/09/09 01:46:10;;;;;;;44.55;25.85;;;;;;;18.64;83.38;100114.31;4956611;28;20043;-79
2021/09/09 01:48:37;;;;;;;50.22;27.13;;;;;;;18.66;83.45;100121.13;4952569;28;20514;-80
2021/09/09 01:51:05;;;;;;;50.85;28.08;;;;;;;18.67;83.27;100117.09;4950853;28;20507;-79
2021/09/09 01:53:32;;;;;;;43.20;26.10;;;;;;;18.69;83.56;100117.47;4951589;28;20138;-79
2021/09/09 01:55:59;;;;;;;46.58;25.30;;;;;;;18.69;83.31;100123.09;4952043;28;20141;-79
2021/09/09 01:58:26;;;;;;;45.10;25.92;;;;;;;18.68;83.61;100115.09;4950507;28;20122;-79
2021/09/09 02:00:52;;;;;;;46.13;26.52;;;;;;;18.68;83.40;100117.91;4953183;28;20043;-80
2021/09/09 02:03:19;;;;;;;52.15;27.67;;;;;;;18.64;83.59;100108.72;4953025;28;20051;-79
2021/09/09 02:05:46;;;;;;;52.35;27.58;;;;;;;18.61;83.62;100107.53;4951596;28;20055;-79
2021/09/09 02:08:13;;;;;;;42.65;25.25;;;;;;;18.62;83.85;100109.16;4952448;28;20039;-79
2021/09/09 02:10:40;;;;;;;38.97;25.50;;;;;;;18.67;83.77;100108.69;4949761;28;20514;-78
2021/09/09 02:13:06;;;;;;;48.13;25.90;;;;;;;18.69;83.67;100099.88;4948409;28;20039;-79
2021/09/09 02:15:33;;;;;;;43.42;25.63;;;;;;;18.70;83.53;100096.66;4953209;28;20129;-78
2021/09/09 02:18:00;;;;;;;41.78;24.40;;;;;;;18.69;83.69;100092.25;4952677;28;20044;-79
2021/09/09 02:20:29;;;;;;;45.47;27.15;;;;;;;18.68;83.48;100098.28;4951294;28;20039;-79
2021/09/09 02:22:56;;;;;;;41.63;25.15;;;;;;;18.64;83.78;100089.91;4952447;28;20049;-79
2021/09/09 02:25:22;;;;;;;53.72;27.92;;;;;;;18.67;83.56;100097.47;4952487;28;20483;-79
2021/09/09 02:27:49;;;;;;;49.20;28.27;;;;;;;18.68;83.66;100090.66;4952276;28;20035;-79
2021/09/09 02:30:16;;;;;;;47.17;27.27;;;;;;;18.69;83.91;100092.25;4952343;28;20110;-80
2021/09/09 02:32:43;;;;;;;52.67;30.45;;;;;;;18.72;83.26;100088.63;4947142;28;20055;-79
2021/09/09 02:35:10;;;;;;;53.60;27.95;;;;;;;18.72;83.44;100085.81;4944357;28;20051;-79
2021/09/09 02:37:37;;;;;;;55.10;28.80;;;;;;;18.72;83.45;100080.19;4935633;28;20137;-79
2021/09/09 02:40:08;;;;;;;53.42;29.88;;;;;;;18.66;83.63;100083.88;4950815;28;20743;-80
2021/09/09 02:42:37;;;;;;;44.20;26.33;;;;;;;18.64;84.04;100073.06;4950810;28;20043;-79
2021/09/09 02:45:04;;;;;;;44.92;27.63;;;;;;;18.63;83.81;100079.91;4950946;28;20043;-79
2021/09/09 02:47:31;;;;;;;40.47;25.77;;;;;;;18.62;84.02;100069.09;4949319;28;20046;-79
2021/09/09 02:49:57;;;;;;;44.92;25.17;;;;;;;18.63;83.82;100065.88;4951586;28;20118;-79
2021/09/09 02:52:24;;;;;;;50.58;28.95;;;;;;;18.61;84.10;100068.28;4949677;28;20041;-80
2021/09/09 02:54:51;;;;;;;52.90;27.60;;;;;;;18.58;84.29;100063.53;4951822;28;20098;-80
2021/09/09 02:57:18;;;;;;;43.78;26.40;;;;;;;18.57;84.09;100061.13;4957513;28;20439;-80
2021/09/09 02:59:45;;;;;;;52.63;28.75;;;;;;;18.57;84.27;100059.13;4918993;29;20637;-80
2021/09/09 03:02:11;;;;;;;40.63;26.55;;;;;;;18.56;84.05;100063.13;4952043;28;20054;-79
2021/09/09 03:04:38;;;;;;;44.55;24.63;;;;;;;18.55;84.20;100060.75;4951621;28;20495;-79
2021/09/09 03:07:05;;;;;;;41.85;25.55;;;;;;;18.54;84.03;100059.97;4951773;28;20066;-80
2021/09/09 03:09:32;;;;;;;54.92;29.92;;;;;;;18.57;83.83;100055.53;4948358;28;20036;-79
2021/09/09 03:11:59;;;;;;;53.13;29.25;;;;;;;18.55;84.06;100050.34;4956530;28;20035;-79
2021/09/09 03:14:25;;;;;;;49.53;27.25;;;;;;;18.57;83.95;100059.13;4951754;28;20051;-79
2021/09/09 03:16:52;;;;;;;54.72;31.05;;;;;;;18.58;83.89;100055.13;4951808;28;20054;-79
2021/09/09 03:19:19;;;;;;;72.65;32.78;;;;;;;18.58;84.02;100052.31;4934927;28;20471;-80
2021/09/09 03:21:46;;;;;;;45.03;26.33;;;;;;;18.55;84.09;100050.34;4950221;28;20487;-80
2021/09/09 03:24:13;;;;;;;44.90;24.77;;;;;;;18.55;83.78;100055.97;4964400;28;20511;-79
2021/09/09 03:26:40;;;;;;;57.10;28.85;;;;;;;18.54;84.05;100051.56;4933856;28;20055;-79
2021/09/09 03:29:06;;;;;;;61.25;29.60;;;;;;;18.53;84.13;100051.97;4918451;28;20066;-80
2021/09/09 03:31:33;;;;;;;65.13;31.13;;;;;;;18.53;84.15;100051.97;4921528;28;20137;-80
2021/09/09 03:34:01;;;;;;;44.47;26.10;;;;;;;18.48;84.27;100047.59;4916131;29;20052;-80
2021/09/09 03:36:28;;;;;;;66.40;33.10;;;;;;;18.49;84.34;100054.81;4949238;28;20377;-79
2021/09/09 03:38:55;;;;;;;55.97;28.85;;;;;;;18.46;84.47;100064.00;4935845;28;20055;-79
2021/09/09 03:41:21;;;;;;;50.22;26.35;;;;;;;18.45;84.50;100048.41;4950254;28;20039;-79
2021/09/09 03:43:48;;;;;;;78.47;32.70;;;;;;;18.44;84.66;100044.00;4950282;28;20065;-79
2021/09/09 03:46:15;;;;;;;62.53;31.20;;;;;;;18.45;84.57;100044.81;4950455;28;20043;-80
2021/09/09 03:48:42;;;;;;;64.25;30.90;;;;;;;18.42;84.55;100049.25;4950291;28;20039;-79
2021/09/09 03:51:09;;;;;;;63.90;30.55;;;;;;;18.39;85.04;100032.47;4945591;28;20075;-80
2021/09/09 03:53:35;;;;;;;96.47;34.55;;;;;;;18.37;85.05;100037.69;4950507;28;20051;-79
2021/09/09 03:56:02;;;;;;;74.40;32.00;;;;;;;18.35;85.04;100034.50;4950988;28;20047;-80
2021/09/09 03:58:29;;;;;;;87.97;32.28;;;;;;;18.36;85.27;100031.28;4918745;28;20403;-80
2021/09/09 04:00:55;;;;;;;88.07;33.17;;;;;;;18.35;85.17;100024.06;4950569;28;20043;-79
2021/09/09 04:03:22;;;;;;;61.38;29.90;;;;;;;18.33;85.26;100020.91;4934223;28;20051;-79
2021/09/09 04:05:49;;;;;;;71.35;30.15;;;;;;;18.31;85.35;100023.31;4951166;28;20055;-79
2021/09/09 04:08:16;;;;;;;57.75;26.98;;;;;;;18.31;85.52;100016.91;4934759;29;20044;-79
2021/09/09 04:10:43;;;;;;;80.03;32.00;;;;;;;18.32;85.43;100015.72;4963577;28;20057;-79
2021/09/09 04:13:09;;;;;;;59.42;27.40;;;;;;;18.31;85.60;100006.50;4949889;28;20055;-79
2021/09/09 04:15:36;;;;;;;79.65;32.55;;;;;;;18.33;85.61;100003.28;4933827;28;20150;-79
2021/09/09 04:18:03;;;;;;;88.78;32.88;;;;;;;18.30;85.56;100002.09;4951766;28;20094;-79
2021/09/09 04:20:30;;;;;;;60.80;27.33;;;;;;;18.27;85.66;100000.13;4934325;28;20047;-79
2021/09/09 04:22:57;;;;;;;65.10;27.60;;;;;;;18.28;85.51;99993.31;4952932;28;20046;-79
2021/09/09 04:25:23;;;;;;;78.93;31.75;;;;;;;18.26;85.43;99992.94;4954886;28;20050;-80
2021/09/09 04:27:50;;;;;;;88.30;32.20;;;;;;;18.24;85.54;99990.56;4921619;28;20055;-79
2021/09/09 04:30:17;;;;;;;65.15;28.02;;;;;;;18.21;85.51;99982.19;4954848;28;20487;-79
2021/09/09 04:32:43;;;;;;;66.72;28.40;;;;;;;18.17;85.70;99973.81;4952419;28;20134;-79
2021/09/09 04:35:10;;;;;;;60.28;26.73;;;;;;;18.13;85.61;99975.06;4953663;28;20051;-79
2021/09/09 04:37:37;;;;;;;53.55;25.67;;;;;;;18.09;85.55;99972.28;4937306;29;20048;-79
2021/09/09 04:40:05;;;;;;;52.70;25.45;;;;;;;18.08;86.02;99969.91;4954225;28;20047;-79
2021/09/09 04:42:32;;;;;;;51.17;26.98;;;;;;;18.04;85.82;99969.13;4942600;28;20050;-79
2021/09/09 04:44:59;;;;;;;48.60;23.70;;;;;;;18.02;85.95;99972.38;4950026;28;20043;-78
2021/09/09 04:47:26;;;;;;;51.03;23.48;;;;;;;18.03;86.05;99967.56;4956623;28;20508;-80
2021/09/09 04:49:53;;;;;;;44.47;22.92;;;;;;;18.02;85.68;99974.38;4956841;28;20048;-80
2021/09/09 04:52:20;;;;;;;50.60;23.27;;;;;;;18.03;85.76;99976.75;4952101;28;20035;-79
2021/09/09 04:54:46;;;;;;;38.63;21.45;;;;;;;18.05;85.47;99976.34;4954252;28;20055;-80
2021/09/09 04:57:13;;;;;;;55.88;26.70;;;;;;;18.00;85.54;99974.75;4953002;28;20051;-79
2021/09/09 04:59:40;;;;;;;44.92;21.77;;;;;;;17.99;85.46;99973.19;4951869;28;20055;-79
2021/09/09 05:02:06;;;;;;;49.92;22.77;;;;;;;18.00;85.65;99971.19;4953824;28;20506;-79
2021/09/09 05:04:33;;;;;;;55.17;25.35;;;;;;;18.03;86.03;99967.56;4942732;29;20077;-80
2021/09/09 05:07:00;;;;;;;52.75;24.85;;;;;;;18.06;85.88;99977.91;4947075;28;20057;-80
2021/09/09 05:09:27;;;;;;;48.55;25.33;;;;;;;18.08;85.85;99978.31;4959532;28;20048;-79
2021/09/09 05:11:54;;;;;;;64.20;30.42;;;;;;;18.11;85.84;99980.28;4958984;28;20058;-79
2021/09/09 05:14:21;;;;;;;76.45;32.53;;;;;;;18.12;85.54;99973.47;4951837;28;20053;-80
2021/09/09 05:16:48;;;;;;;93.68;35.90;;;;;;;18.10;85.83;99973.91;4950867;28;20752;-79
2021/09/09 05:19:15;;;;;;;69.30;29.65;;;;;;;18.11;85.81;99975.47;4939955;28;20066;-79
2021/09/09 05:21:42;;;;;;;79.40;31.65;;;;;;;18.12;85.68;99977.06;4952788;28;20039;-79
2021/09/09 05:24:08;;;;;;;66.63;29.33;;;;;;;18.10;86.02;99975.91;4954038;28;20061;-79
2021/09/09 05:26:35;;;;;;;71.07;28.77;;;;;;;18.09;86.29;99968.69;4953890;28;20043;-79
2021/09/09 05:29:02;;;;;;;66.75;26.25;;;;;;;18.09;86.02;99965.88;4953782;28;20109;-79
2021/09/09 05:31:29;;;;;;;156.32;36.60;;;;;;;18.11;86.00;99969.06;4920460;28;20054;-79
2021/09/09 05:33:55;;;;;;;129.25;33.55;;;;;;;18.11;85.90;99977.47;4935134;28;20582;-79
2021/09/09 05:36:22;;;;;;;69.60;27.98;;;;;;;18.11;86.18;99975.47;4959359;28;20492;-79
2021/09/09 05:38:49;;;;;;;101.50;29.10;;;;;;;18.10;86.04;99973.91;4952391;28;20054;-79
2021/09/09 05:41:16;;;;;;;155.95;34.53;;;;;;;18.10;85.93;99973.91;4949203;28;20044;-79
2021/09/09 05:43:42;;;;;;;117.28;30.38;;;;;;;18.10;86.38;99979.50;4951644;28;20054;-79
2021/09/09 05:46:09;;;;;;;144.93;31.17;;;;;;;18.12;86.35;99990.28;4919497;29;20046;-79
2021/09/09 05:48:36;;;;;;;99.22;29.80;;;;;;;18.12;86.24;99981.88;4936662;29;20460;-79
2021/09/09 05:51:03;;;;;;;218.80;37.70;;;;;;;18.09;86.24;99983.50;4946210;28;20047;-79
2021/09/09 05:53:29;;;;;;;121.55;29.77;;;;;;;18.08;86.31;99986.72;4952549;28;20035;-79
2021/09/09 05:55:56;;;;;;;128.07;29.35;;;;;;;18.08;86.38;99993.09;4944569;29;20055;-79
2021/09/09 05:58:23;;;;;;;141.45;32.10;;;;;;;18.11;86.16;99986.66;4935567;28;20504;-79
2021/09/09 06:00:49;;;;;;;85.50;26.80;;;;;;;18.12;86.09;99998.69;4950384;28;20050;-79
2021/09/09 06:03:24;;;;;;;101.07;29.55;;;;;;;18.14;86.32;99990.66;4952361;28;20039;-79
2021/09/09 06:05:53;;;;;;;156.98;35.15;;;;;;;18.15;85.96;99992.25;4950782;28;20518;-80
2021/09/09 06:08:20;;;;;;;189.77;35.67;;;;;;;18.15;86.17;99992.25;4936015;28;20126;-80
2021/09/09 06:10:46;;;;;;;153.25;33.85;;;;;;;18.13;86.07;99986.28;4940944;28;20125;-80
2021/09/09 06:13:13;;;;;;;172.18;36.00;;;;;;;18.13;86.36;99983.47;4960566;28;20126;-81
2021/09/09 06:15:40;;;;;;;205.15;37.92;;;;;;;18.13;86.37;99989.06;4952853;28;20159;-80
2021/09/09 06:18:07;;;;;;;283.70;43.78;;;;;;;18.10;86.47;99982.31;4961939;28;20039;-79
2021/09/09 06:20:33;;;;;;;147.50;36.08;;;;;;;18.11;86.45;99980.28;4936862;28;20473;-78
2021/09/09 06:23:00;;;;;;;86.38;29.35;;;;;;;18.13;86.46;99983.47;4954543;28;20035;-79
2021/09/09 06:25:27;;;;;;;86.47;28.67;;;;;;;18.17;86.23;99976.63;4919320;29;20610;-79
2021/09/09 06:27:53;;;;;;;104.47;31.90;;;;;;;18.18;86.60;99980.22;4935442;28;20057;-79
2021/09/09 06:30:23;;;;;;;118.80;31.90;;;;;;;18.17;86.90;99978.63;4953106;28;20536;-79
2021/09/09 06:32:50;;;;;;;125.05;33.70;;;;;;;18.19;86.68;99979.00;4951726;28;20042;-80
2021/09/09 06:35:17;;;;;;;213.02;45.25;;;;;;;18.17;86.63;99973.81;4951062;28;20040;-79
2021/09/09 06:37:45;;;;;;;173.05;41.85;;;;;;;18.16;86.67;99974.25;4934762;28;20043;-79
2021/09/09 06:40:12;;;;;;;90.88;27.88;;;;;;;18.16;86.79;99983.41;4935174;28;20057;-79
2021/09/09 06:42:39;;;;;;;117.53;33.70;;;;;;;18.19;86.82;99982.59;4936159;28;20119;-79
2021/09/09 06:45:07;;;;;;;124.50;35.75;;;;;;;18.23;86.86;99982.56;4922830;28;20506;-79
2021/09/09 06:47:34;;;;;;;105.68;34.80;;;;;;;18.26;86.89;99976.13;4952688;28;20066;-80
2021/09/09 06:50:01;;;;;;;73.20;29.15;;;;;;;18.31;87.32;99978.50;4949475;28;20093;-79
2021/09/09 06:52:28;;;;;;;60.60;26.13;;;;;;;18.35;86.97;99973.63;4934726;28;20566;-79
2021/09/09 06:54:54;;;;;;;51.00;25.20;;;;;;;18.38;87.42;99975.59;4948639;28;20146;-79
2021/09/09 06:57:21;;;;;;;48.55;25.27;;;;;;;18.39;87.14;99980.00;4952049;28;20483;-79
2021/09/09 06:59:48;;;;;;;46.70;24.08;;;;;;;18.39;87.10;99974.41;4952182;28;20065;-79
2021/09/09 07:02:14;;;;;;;38.45;19.27;;;;;;;18.39;87.19;99980.00;4950786;28;20039;-80
2021/09/09 07:04:41;;;;;;;30.00;16.95;;;;;;;18.40;86.84;99980.81;4952145;28;20126;-79
2021/09/09 07:07:08;;;;;;;27.38;16.65;;;;;;;18.40;86.95;99981.56;4951936;28;20065;-79
2021/09/09 07:09:35;;;;;;;18.95;11.43;;;;;;;18.38;86.73;99984.00;4918988;29;20047;-81
2021/09/09 07:12:02;;;;;;;14.43;9.85;;;;;;;18.34;87.00;99982.47;4953241;28;20036;-79
2021/09/09 07:14:28;;;;;;;13.07;8.75;;;;;;;18.31;86.76;99981.28;4935288;29;20475;-79
2021/09/09 07:16:55;;;;;;;12.85;9.35;;;;;;;18.33;86.67;99987.28;4944169;28;20047;-80
2021/09/09 07:19:22;;;;;;;13.98;9.65;;;;;;;18.36;87.04;99988.44;4950502;28;20071;-79
2021/09/09 07:21:51;;;;;;;15.73;8.48;;;;;;;18.39;86.67;99991.22;4949630;28;20137;-80
2021/09/09 07:24:19;;;;;;;12.23;8.20;;;;;;;18.41;86.61;99994.38;4936557;28;20118;-81
2021/09/09 07:26:47;;;;;;;11.48;7.93;;;;;;;18.43;86.58;99991.97;4937225;28;20034;-80
2021/09/09 07:29:15;;;;;;;16.75;9.20;;;;;;;18.42;86.46;99992.38;4919637;28;20670;-81
2021/09/09 07:31:43;;;;;;;14.18;10.45;;;;;;;18.41;86.32;99990.78;4953826;28;20515;-80
2021/09/09 07:34:12;;;;;;;13.88;8.95;;;;;;;18.40;86.60;99992.78;4937890;28;20396;-80
2021/09/09 07:36:39;;;;;;;16.23;9.20;;;;;;;18.45;86.48;99994.38;4927853;28;20047;-79
2021/09/09 07:39:06;;;;;;;14.23;8.80;;;;;;;18.48;86.55;99991.53;4948628;28;20045;-79
2021/09/09 07:41:34;;;;;;;15.70;11.00;;;;;;;18.56;86.51;99990.25;4949469;28;20035;-81
2021/09/09 07:44:00;;;;;;;15.88;9.95;;;;;;;18.60;86.38;99987.41;4949777;28;20074;-79
2021/09/09 07:46:27;;;;;;;18.83;11.35;;;;;;;18.63;86.37;99987.38;4949613;28;20054;-79
2021/09/09 07:48:54;;;;;;;17.05;11.10;;;;;;;18.66;86.20;99992.16;4957765;28;20047;-78
2021/09/09 07:51:22;;;;;;;16.05;10.98;;;;;;;18.71;86.31;99993.69;4958137;28;20067;-78
2021/09/09 07:53:50;;;;;;;17.67;11.38;;;;;;;18.73;86.33;99989.25;4957996;28;20043;-78
2021/09/09 07:56:17;;;;;;;17.70;10.55;;;;;;;18.76;86.13;99993.25;4951872;28;20038;-78
2021/09/09 07:58:48;;;;;;;18.27;11.65;;;;;;;18.78;86.18;99991.59;4937042;28;20082;-78
2021/09/09 08:01:17;;;;;;;20.73;13.77;;;;;;;18.80;85.93;99994.78;4955977;28;20046;-79
2021/09/09 08:03:46;;;;;;;19.92;13.48;;;;;;;18.78;86.18;99991.59;4965812;28;20066;-78
2021/09/09 08:06:14;;;;;;;24.70;15.43;;;;;;;18.81;85.88;99987.16;4954564;28;20047;-78
2021/09/09 08:08:42;;;;;;;23.75;12.25;;;;;;;18.83;86.03;99987.53;4953697;28;20039;-79
2021/09/09 08:11:09;;;;;;;17.55;11.43;;;;;;;18.85;85.64;99982.28;4954094;28;20043;-79
2021/09/09 08:13:37;;;;;;;14.18;10.30;;;;;;;18.84;85.80;99978.72;4949890;28;20138;-79
2021/09/09 08:16:05;;;;;;;15.20;9.93;;;;;;;18.86;85.88;99986.69;4957258;28;20114;-79
2021/09/09 08:18:32;;;;;;;15.50;9.38;;;;;;;18.96;85.92;99996.19;4959819;28;20125;-79
2021/09/09 08:20:59;;;;;;;14.50;9.20;;;;;;;19.02;85.50;99994.50;4953976;28;20074;-78
2021/09/09 08:23:26;;;;;;;19.42;9.50;;;;;;;19.07;85.87;99996.84;4958248;28;20073;-78
2021/09/09 08:25:52;;;;;;;14.32;9.55;;;;;;;19.11;85.73;99994.81;4958142;28;20062;-78
2021/09/09 08:28:19;;;;;;;15.88;10.23;;;;;;;19.12;85.48;99993.56;4954935;28;20050;-78
2021/09/09 08:30:47;;;;;;;12.00;8.90;;;;;;;19.12;85.76;99993.56;4950836;28;20164;-78
2021/09/09 08:33:14;;;;;;;15.30;10.40;;;;;;;19.17;85.51;100002.31;4932765;28;20365;-78
2021/09/09 08:35:42;;;;;;;13.73;8.82;;;;;;;19.17;85.32;100004.31;4937176;28;20503;-78
2021/09/09 08:38:10;;;;;;;14.43;9.57;;;;;;;19.21;85.23;99991.06;4953764;28;20054;-79
2021/09/09 08:40:39;;;;;;;13.63;8.23;;;;;;;19.27;85.37;99989.38;4952604;28;20047;-78
2021/09/09 08:43:07;;;;;;;20.95;10.13;;;;;;;19.31;84.92;99995.72;4938246;28;20121;-79
2021/09/09 08:45:34;;;;;;;11.75;8.20;;;;;;;19.34;84.89;99995.69;4957559;28;20105;-78
2021/09/09 08:48:04;;;;;;;15.95;9.55;;;;;;;19.36;85.11;99998.06;4968298;28;20054;-80
2021/09/09 08:50:32;;;;;;;15.05;9.80;;;;;;;19.41;85.06;100003.22;4941901;28;20047;-79
2021/09/09 08:53:00;;;;;;;13.20;9.40;;;;;;;19.44;84.86;99999.56;4961609;28;20051;-78
2021/09/09 08:55:27;;;;;;;20.00;10.13;;;;;;;19.53;85.00;100001.88;4952700;28;20039;-79
2021/09/09 08:57:59;;;;;;;18.55;11.77;;;;;;;19.63;84.49;100001.69;4953257;28;20522;-80
2021/09/09 09:00:28;;;;;;;14.45;11.13;;;;;;;19.73;84.65;100003.53;4949693;28;20057;-80
2021/09/09 09:02:56;;;;;;;15.55;12.07;;;;;;;19.83;84.33;99993.38;4953789;28;20055;-79
2021/09/09 09:05:25;;;;;;;19.30;12.50;;;;;;;19.93;84.10;99987.59;4955052;28;20094;-81
2021/09/09 09:08:03;;;;;;;17.20;12.65;;;;;;;20.06;83.83;99993.38;4952570;28;20078;-82
2021/09/09 09:10:31;;;;;;;20.75;14.57;;;;;;;20.10;84.00;99991.28;4924070;28;20047;-80
2021/09/09 09:12:59;;;;;;;18.80;13.10;;;;;;;20.11;83.45;100006.94;4950244;28;20046;-80
2021/09/09 09:15:29;;;;;;;17.10;12.23;;;;;;;20.16;83.47;100000.03;4938235;28;20739;-80
2021/09/09 09:18:01;;;;;;;16.30;9.20;;;;;;;20.20;83.21;100000.78;4950883;28;20129;-81
2021/09/09 09:20:39;;;;;;;12.02;8.90;;;;;;;20.21;82.81;99999.53;4946858;28;20047;-80
2021/09/09 09:23:16;;;;;;;12.82;8.73;;;;;;;20.20;82.90;100001.53;4941339;29;20051;-81
2021/09/09 09:25:46;;;;;;;10.90;9.57;;;;;;;20.25;82.76;100003.94;4942755;28;20074;-80
2021/09/09 09:28:14;;;;;;;10.73;7.82;;;;;;;20.34;82.49;100000.53;4949998;28;20133;-78
2021/09/09 09:31:01;;;;;;;10.48;7.93;;;;;;;20.31;81.97;100007.00;4940497;28;20367;-80
2021/09/09 09:33:33;;;;;;;10.93;7.38;;;;;;;20.32;82.18;100000.97;4922273;28;20055;-79
2021/09/09 09:36:16;;;;;;;11.00;7.80;;;;;;;20.37;81.72;100006.09;4921342;29;20070;-80
2021/09/09 09:38:43;;;;;;;12.70;7.47;;;;;;;20.46;81.82;100002.75;4951749;28;20039;-81
2021/09/09 09:41:12;;;;;;;9.95;6.90;;;;;;;20.51;82.01;99996.63;4918426;29;20043;-80
2021/09/09 09:43:53;;;;;;;11.68;7.57;;;;;;;20.56;81.64;99998.94;4947606;28;20055;-82
2021/09/09 09:46:24;;;;;;;12.35;8.60;;;;;;;20.59;81.45;99995.25;4937994;29;20498;-80
2021/09/09 09:48:51;;;;;;;9.82;6.45;;;;;;;20.60;81.53;99991.19;4918941;28;20048;-80
2021/09/09 09:51:42;;;;;;;13.73;7.60;;;;;;;20.63;80.97;99995.97;4927630;28;20055;-80
2021/09/09 09:54:14;;;;;;;13.77;7.38;;;;;;;20.64;81.20;99992.75;4963097;28;20051;-80
2021/09/09 09:56:42;;;;;;;11.35;7.35;;;;;;;20.68;81.09;100001.09;4952761;28;20044;-80
2021/09/09 09:59:09;;;;;;;10.35;7.53;;;;;;;20.71;81.04;100003.03;4948768;28;20045;-80
2021/09/09 10:01:41;;;;;;;13.10;7.60;;;;;;;20.75;80.83;100002.97;4956374;28;20062;-80
2021/09/09 10:04:11;;;;;;;14.38;7.70;;;;;;;20.76;80.49;100004.59;4934534;29;20126;-79
2021/09/09 10:06:41;;;;;;;12.70;7.70;;;;;;;20.79;80.27;99998.88;4941586;28;20058;-82
2021/09/09 10:09:10;;;;;;;11.93;7.63;;;;;;;20.86;80.51;100001.56;4936723;29;20051;-79
2021/09/09 10:11:39;;;;;;;13.95;7.40;;;;;;;20.90;80.07;100005.06;4921455;29;20047;-79
2021/09/09 10:14:06;;;;;;;12.45;7.35;;;;;;;20.97;79.71;100002.09;4934713;28;20051;-79
2021/09/09 10:16:41;;;;;;;12.63;8.05;;;;;;;20.97;79.21;99999.28;4921621;28;20407;-78
2021/09/09 10:19:12;;;;;;;10.82;8.25;;;;;;;21.02;79.69;99995.97;4922825;28;20058;-79
2021/09/09 10:21:45;;;;;;;10.75;8.00;;;;;;;21.18;79.74;99987.59;4952456;28;20054;-79
2021/09/09 10:24:33;;;;;;;15.18;7.20;;;;;;;21.30;78.97;99985.34;4962971;28;20045;-78
2021/09/09 10:27:22;;;;;;;15.93;7.88;;;;;;;21.38;78.69;99989.59;4925359;28;20133;-79
2021/09/09 10:30:05;;;;;;;11.52;6.97;;;;;;;21.45;79.09;99984.59;4955954;28;20047;-79
2021/09/09 10:32:32;;;;;;;10.40;7.20;;;;;;;21.58;78.72;99979.88;4955680;28;20044;-79
2021/09/09 10:35:14;;;;;;;10.68;6.72;;;;;;;21.69;77.44;99976.78;4944084;29;20047;-79
2021/09/09 10:37:47;;;;;;;12.18;6.95;;;;;;;21.73;78.06;99971.88;4951465;28;20431;-79
2021/09/09 10:40:33;;;;;;;;;;;;;;;21.77;77.88;99978.19;4945698;28;20066;-79
2021/09/09 10:43:01;;;;;;;11.95;7.32;;;;;;;21.85;78.17;99965.53;4938692;28;20298;-78
2021/09/09 10:45:34;;;;;;;11.30;7.63;;;;;;;21.84;77.34;99972.41;4949233;28;20051;-79
2021/09/09 10:48:03;;;;;;;8.05;5.63;;;;;;;21.88;77.28;99966.69;4955188;28;20042;-79
2021/09/09 10:50:30;;;;;;;8.27;5.40;;;;;;;21.90;77.23;99970.66;4964276;28;20571;-78
2021/09/09 10:53:03;;;;;;;10.32;5.97;;;;;;;21.89;76.24;99966.28;4947723;28;20397;-78
2021/09/09 10:55:33;;;;;;;8.75;6.30;;;;;;;21.81;76.42;99970.47;4957322;28;20105;-80
2021/09/09 10:58:19;;;;;;;11.40;6.20;;;;;;;21.79;75.57;99964.47;4961995;28;20047;-79
2021/09/09 11:00:57;;;;;;;8.07;5.35;;;;;;;21.74;75.79;99965.78;4939512;28;20051;-79
2021/09/09 11:03:40;;;;;;;8.57;5.78;;;;;;;21.80;75.48;99961.22;4940293;28;21675;-80
2021/09/09 11:06:25;;;;;;;12.13;6.20;;;;;;;21.83;75.74;99959.53;4938601;28;20106;-79
2021/09/09 11:08:55;;;;;;;9.23;6.50;;;;;;;21.87;75.64;99965.91;4937705;29;20086;-80
2021/09/09 11:11:29;;;;;;;9.05;6.22;;;;;;;21.95;74.83;99966.53;4941379;28;20046;-79
2021/09/09 11:14:04;;;;;;;8.00;6.43;;;;;;;22.02;74.90;99960.72;4943578;29;20050;-79
2021/09/09 11:16:37;;;;;;;8.13;5.32;;;;;;;22.04;74.73;99959.03;4946073;28;20114;-80
2021/09/09 11:19:08;;;;;;;9.20;5.18;;;;;;;22.04;74.66;99961.84;4944761;28;20043;-79